Time;durP1;ratioP1;P1;durP2;ratioP2;P2;SDS_P1;SDS_P2;PMS_P1;PMS_P2;Temp;Humidity;BMP_temperature;BMP_pressure;BME280_temperature;BME280_humidity;BME280_pressure;Samples;Min_cycle;Max_cycle;Signal;HPM_P1;HPM_P2
2023/06/17 00:02:54;;;;;;;4.70;3.97;;;24.90;51.30;;;;;;10129363;28;20043;-63
2023/06/17 00:07:45;;;;;;;9.80;4.30;;;24.80;51.40;;;;;;10122126;28;20028;-62
2023/06/17 00:12:36;;;;;;;5.55;4.05;;;24.50;51.60;;;;;;10132310;28;20124;-61
2023/06/17 00:17:31;;;;;;;5.95;4.07;;;24.60;51.80;;;;;;10116836;28;20183;-62
2023/06/17 00:22:24;;;;;;;4.90;3.63;;;24.30;52.00;;;;;;10113529;28;20040;-63
2023/06/17 00:27:15;;;;;;;8.00;3.92;;;24.40;51.90;;;;;;10124962;28;20545;-64
2023/06/17 00:32:06;;;;;;;8.18;5.22;;;24.30;52.00;;;;;;10123160;28;20049;-63
2023/06/17 00:36:57;;;;;;;10.05;6.15;;;24.20;52.50;;;;;;10127324;28;20094;-63
2023/06/17 00:41:47;;;;;;;10.20;6.15;;;24.00;53.60;;;;;;10127509;28;20036;-63
2023/06/17 00:46:41;;;;;;;10.20;5.68;;;23.80;54.80;;;;;;10136274;28;20108;-63
2023/06/17 00:51:33;;;;;;;10.45;6.35;;;23.80;55.70;;;;;;10118794;28;20044;-61
2023/06/17 00:56:25;;;;;;;9.20;6.28;;;23.60;56.50;;;;;;10114169;28;20521;-62
2023/06/17 01:01:17;;;;;;;9.23;5.68;;;23.50;57.40;;;;;;10136689;28;20065;-61
2023/06/17 01:06:19;;;;;;;12.32;5.75;;;23.40;58.00;;;;;;10100498;28;20869;-63
2023/06/17 01:11:16;;;;;;;10.38;4.90;;;23.10;58.90;;;;;;10137185;28;20045;-63
2023/06/17 01:16:08;;;;;;;5.75;4.50;;;22.90;58.40;;;;;;10125654;28;20020;-62
2023/06/17 01:20:59;;;;;;;6.13;4.40;;;22.70;58.00;;;;;;10120243;28;20027;-61
2023/06/17 01:25:52;;;;;;;7.55;4.78;;;22.80;57.50;;;;;;10122745;28;20228;-63
2023/06/17 01:30:54;;;;;;;8.27;4.88;;;23.00;57.00;;;;;;10123294;28;20043;-60
2023/06/17 01:36:00;;;;;;;8.77;5.00;;;23.00;56.90;;;;;;10128659;28;20086;-59
2023/06/17 01:40:57;;;;;;;9.82;4.50;;;23.00;56.90;;;;;;10133502;28;20054;-61
2023/06/17 01:45:48;;;;;;;8.23;4.05;;;22.80;57.10;;;;;;10136883;28;20029;-60
2023/06/17 01:50:39;;;;;;;5.68;4.75;;;23.10;57.10;;;;;;10117848;28;20098;-61
2023/06/17 01:55:30;;;;;;;6.18;4.05;;;22.80;57.30;;;;;;10119071;28;20238;-61
2023/06/17 02:00:20;;;;;;;5.15;4.53;;;22.70;57.50;;;;;;10122153;28;20021;-61
2023/06/17 02:05:11;;;;;;;8.85;5.15;;;23.00;57.50;;;;;;10130154;28;20048;-61
2023/06/17 02:10:03;;;;;;;7.03;4.40;;;22.80;57.50;;;;;;10139207;28;20044;-62
2023/06/17 02:14:54;;;;;;;7.15;4.57;;;22.90;57.80;;;;;;10140675;28;20032;-60
2023/06/17 02:19:44;;;;;;;8.60;4.90;;;22.70;58.00;;;;;;10134478;28;20016;-60
2023/06/17 02:24:35;;;;;;;6.13;4.30;;;22.60;58.10;;;;;;10134421;28;20028;-62
2023/06/17 02:29:26;;;;;;;5.90;4.00;;;22.50;58.20;;;;;;10135978;28;20033;-60
2023/06/17 02:34:19;;;;;;;6.82;4.28;;;22.30;58.30;;;;;;10131847;28;20513;-60
2023/06/17 02:39:10;;;;;;;6.63;4.30;;;22.20;58.60;;;;;;10128739;28;20029;-60
2023/06/17 02:44:01;;;;;;;6.57;4.55;;;22.30;58.30;;;;;;10137375;28;20478;-60
2023/06/17 02:48:51;;;;;;;6.00;4.15;;;22.30;58.40;;;;;;10125281;28;20085;-59
2023/06/17 02:53:42;;;;;;;4.93;4.20;;;22.20;58.60;;;;;;10125010;28;20173;-61
2023/06/17 02:58:34;;;;;;;4.53;3.55;;;22.10;58.80;;;;;;10109679;28;20036;-61
2023/06/17 03:03:34;;;;;;;6.30;4.38;;;22.20;58.80;;;;;;10136934;28;20656;-60
2023/06/17 03:08:25;;;;;;;5.35;3.80;;;22.10;58.70;;;;;;10121886;28;20084;-59
2023/06/17 03:13:16;;;;;;;4.78;4.22;;;22.10;59.00;;;;;;10133165;28;20074;-60
2023/06/17 03:18:07;;;;;;;9.13;4.65;;;22.00;59.10;;;;;;10125785;28;20048;-60
2023/06/17 03:22:57;;;;;;;5.85;4.32;;;22.20;59.10;;;;;;10126943;28;20489;-60
2023/06/17 03:27:48;;;;;;;5.60;4.47;;;22.20;59.60;;;;;;10136186;28;20078;-61
2023/06/17 03:32:39;;;;;;;5.85;4.57;;;21.80;59.50;;;;;;10136736;28;20390;-60
2023/06/17 03:37:29;;;;;;;8.50;4.10;;;21.80;59.60;;;;;;10135214;28;20028;-60
2023/06/17 03:42:20;;;;;;;8.38;4.75;;;21.90;59.60;;;;;;10138406;28;20294;-60
2023/06/17 03:47:11;;;;;;;5.13;4.15;;;21.70;59.80;;;;;;10129840;28;20169;-60
2023/06/17 03:52:02;;;;;;;6.13;4.75;;;21.60;59.90;;;;;;10115949;28;20518;-59
2023/06/17 03:56:52;;;;;;;7.32;4.47;;;21.50;59.70;;;;;;10130452;28;20073;-61
2023/06/17 04:01:43;;;;;;;6.43;4.68;;;21.50;60.00;;;;;;10136195;28;20032;-61
2023/06/17 04:06:35;;;;;;;7.07;4.65;;;21.30;60.30;;;;;;10133189;28;20044;-59
2023/06/17 04:11:26;;;;;;;5.93;4.63;;;21.30;60.60;;;;;;10135727;28;20044;-59
2023/06/17 04:16:16;;;;;;;7.55;5.00;;;21.50;60.70;;;;;;10136670;28;20055;-59
2023/06/17 04:21:07;;;;;;;7.00;4.65;;;21.40;61.20;;;;;;10128602;28;20025;-59
2023/06/17 04:25:58;;;;;;;8.15;4.97;;;21.40;61.60;;;;;;10136366;28;20033;-59
2023/06/17 04:30:48;;;;;;;6.03;5.22;;;21.50;61.50;;;;;;10128076;28;20041;-60
2023/06/17 04:35:41;;;;;;;7.82;5.40;;;21.50;61.90;;;;;;10121620;28;20044;-61
2023/06/17 04:40:32;;;;;;;6.53;5.78;;;21.50;62.30;;;;;;10131937;28;20491;-60
2023/06/17 04:45:23;;;;;;;8.18;5.72;;;21.30;62.50;;;;;;10135703;28;20032;-60
2023/06/17 04:50:17;;;;;;;7.68;5.60;;;21.50;62.90;;;;;;10120051;28;20379;-59
2023/06/17 04:55:11;;;;;;;10.27;7.10;;;21.60;62.70;;;;;;10131003;28;20024;-60
2023/06/17 05:00:01;;;;;;;8.07;6.05;;;21.60;63.10;;;;;;10135066;28;20433;-59
2023/06/17 05:04:52;;;;;;;8.32;5.88;;;21.60;63.30;;;;;;10123038;28;20043;-60
2023/06/17 05:09:42;;;;;;;8.38;5.78;;;21.50;63.50;;;;;;10135638;28;20049;-61
2023/06/17 05:14:33;;;;;;;8.50;5.80;;;21.60;63.70;;;;;;10123096;28;20480;-62
2023/06/17 05:19:24;;;;;;;11.18;6.07;;;21.70;64.10;;;;;;10135013;28;20042;-60
2023/06/17 05:24:14;;;;;;;10.00;6.50;;;21.70;64.00;;;;;;10143096;28;20045;-60
2023/06/17 05:29:05;;;;;;;11.80;5.93;;;21.70;64.40;;;;;;10138622;28;20061;-60
2023/06/17 05:33:56;;;;;;;11.25;7.07;;;21.60;64.40;;;;;;10138008;28;20037;-60
2023/06/17 05:38:46;;;;;;;8.80;6.28;;;21.70;64.70;;;;;;10126548;28;20032;-59
2023/06/17 05:43:37;;;;;;;7.68;5.38;;;21.80;64.50;;;;;;10136389;28;20561;-60
2023/06/17 05:48:27;;;;;;;9.70;5.75;;;21.70;64.50;;;;;;10109410;28;20037;-59
2023/06/17 05:53:18;;;;;;;11.30;6.35;;;21.70;64.50;;;;;;10140952;28;20407;-60
2023/06/17 05:58:09;;;;;;;6.93;5.70;;;21.90;64.40;;;;;;10141235;28;20089;-60
2023/06/17 06:02:59;;;;;;;6.65;5.45;;;22.10;64.10;;;;;;10143255;28;20116;-60
2023/06/17 06:07:50;;;;;;;8.10;5.40;;;21.80;64.10;;;;;;10134163;28;20047;-61
2023/06/17 06:12:40;;;;;;;6.10;4.43;;;21.90;63.90;;;;;;10130484;28;20384;-60
2023/06/17 06:17:31;;;;;;;7.28;4.88;;;22.10;63.30;;;;;;10132796;28;20033;-60
2023/06/17 06:22:22;;;;;;;6.00;5.32;;;22.20;63.00;;;;;;10133807;28;20028;-59
2023/06/17 06:27:13;;;;;;;6.47;4.78;;;22.20;62.60;;;;;;10113005;28;20103;-60
2023/06/17 06:32:04;;;;;;;7.25;4.68;;;22.20;62.50;;;;;;10139597;28;20060;-60
2023/06/17 06:36:58;;;;;;;6.75;5.00;;;22.30;62.30;;;;;;10139278;28;20098;-60
2023/06/17 06:41:48;;;;;;;5.20;4.40;;;22.30;62.20;;;;;;10120665;28;20123;-60
2023/06/17 06:46:39;;;;;;;7.82;5.22;;;22.40;61.90;;;;;;10128159;28;20477;-59
2023/06/17 06:51:30;;;;;;;5.40;4.13;;;22.30;61.90;;;;;;10129398;28;20053;-59
2023/06/17 06:56:20;;;;;;;7.25;4.50;;;22.40;61.70;;;;;;10130958;28;20437;-58
2023/06/17 07:01:11;;;;;;;6.25;4.50;;;22.60;61.60;;;;;;10138527;28;20043;-59
2023/06/17 07:06:02;;;;;;;7.30;4.82;;;22.80;61.30;;;;;;10132733;28;20024;-59
2023/06/17 07:10:53;;;;;;;5.95;4.70;;;22.70;61.30;;;;;;10148632;28;20078;-60
2023/06/17 07:15:45;;;;;;;9.77;4.82;;;22.80;61.00;;;;;;10175710;28;20466;-60
2023/06/17 07:20:35;;;;;;;5.88;4.95;;;23.00;60.60;;;;;;10175487;28;20036;-60
2023/06/17 07:25:26;;;;;;;5.60;4.57;;;22.90;60.40;;;;;;10177515;28;20439;-60
2023/06/17 07:30:17;;;;;;;7.95;5.40;;;22.90;60.30;;;;;;10172906;28;20044;-61
2023/06/17 07:35:08;;;;;;;5.95;4.90;;;23.20;60.00;;;;;;10173371;28;20070;-59
2023/06/17 07:39:58;;;;;;;6.40;5.28;;;23.10;60.00;;;;;;10172776;28;20032;-62
2023/06/17 07:44:49;;;;;;;6.50;4.50;;;23.40;59.60;;;;;;10171833;28;20485;-60
2023/06/17 07:49:39;;;;;;;6.57;4.70;;;23.40;59.50;;;;;;10157701;28;20068;-63
2023/06/17 07:54:30;;;;;;;8.23;4.93;;;23.50;59.40;;;;;;10172700;28;20062;-62
2023/06/17 07:59:21;;;;;;;7.00;4.65;;;23.60;59.20;;;;;;10176636;28;20036;-62
2023/06/17 08:04:12;;;;;;;6.65;4.97;;;23.80;59.10;;;;;;10173408;28;20027;-62
2023/06/17 08:09:03;;;;;;;7.57;5.88;;;23.80;58.90;;;;;;10162031;28;20075;-62
2023/06/17 08:13:53;;;;;;;8.70;5.70;;;23.90;59.00;;;;;;10115174;28;20029;-63
2023/06/17 08:18:44;;;;;;;7.18;4.72;;;23.90;59.00;;;;;;10127428;28;20039;-61
2023/06/17 08:23:35;;;;;;;8.77;5.85;;;24.20;58.70;;;;;;10127536;28;20044;-63
2023/06/17 08:28:25;;;;;;;7.47;5.43;;;24.40;58.40;;;;;;10135714;28;20039;-63
2023/06/17 08:33:16;;;;;;;6.93;5.03;;;24.50;58.20;;;;;;10119478;28;20104;-61
2023/06/17 08:38:07;;;;;;;8.38;5.43;;;24.50;58.20;;;;;;10134123;28;20024;-61
2023/06/17 08:43:02;;;;;;;7.20;5.00;;;24.50;58.10;;;;;;10115156;28;20515;-62
2023/06/17 08:47:53;;;;;;;8.18;4.93;;;24.50;57.80;;;;;;10112816;28;20041;-62
2023/06/17 08:52:46;;;;;;;6.95;5.05;;;24.70;57.50;;;;;;10124494;28;20029;-62
2023/06/17 08:57:37;;;;;;;6.90;5.10;;;25.00;57.30;;;;;;10125446;28;20539;-63
2023/06/17 09:02:29;;;;;;;6.32;5.30;;;25.10;57.10;;;;;;10136175;28;20120;-63
2023/06/17 09:07:21;;;;;;;6.53;4.90;;;25.30;56.90;;;;;;10125996;28;20121;-62
2023/06/17 09:12:12;;;;;;;6.45;5.05;;;25.50;56.80;;;;;;10140991;28;20060;-63
2023/06/17 09:17:03;;;;;;;6.45;4.97;;;25.60;56.60;;;;;;10134559;28;20032;-62
2023/06/17 09:21:55;;;;;;;8.32;5.30;;;25.60;56.30;;;;;;10137908;28;20054;-62
2023/06/17 09:26:47;;;;;;;9.35;5.30;;;25.80;56.10;;;;;;10141392;28;20028;-62
2023/06/17 09:31:52;;;;;;;8.13;4.70;;;25.90;55.90;;;;;;10136714;28;20395;-62
2023/06/17 09:36:44;;;;;;;6.78;4.53;;;26.20;55.50;;;;;;10141040;28;20024;-63
2023/06/17 09:41:40;;;;;;;7.45;4.70;;;26.40;55.10;;;;;;10134431;28;20040;-62
2023/06/17 09:46:39;;;;;;;7.80;5.15;;;26.60;55.00;;;;;;10141388;28;20059;-62
2023/06/17 09:51:36;;;;;;;6.80;5.10;;;26.70;54.80;;;;;;10121382;28;20506;-63
2023/06/17 09:56:27;;;;;;;6.90;4.78;;;26.80;54.50;;;;;;10131680;28;20300;-63
2023/06/17 10:01:17;;;;;;;8.43;4.85;;;27.00;54.40;;;;;;10137014;28;20302;-62
2023/06/17 10:06:13;;;;;;;6.70;4.88;;;27.10;54.00;;;;;;10130593;28;20021;-62
2023/06/17 10:11:04;;;;;;;6.57;4.30;;;27.30;53.60;;;;;;10138144;28;20048;-61
2023/06/17 10:15:56;;;;;;;7.93;4.38;;;27.40;53.10;;;;;;10118855;28;20033;-62
2023/06/17 10:20:48;;;;;;;5.78;4.28;;;27.20;52.90;;;;;;10141142;28;20510;-63
2023/06/17 10:25:40;;;;;;;7.40;4.85;;;27.30;52.80;;;;;;10140120;28;20116;-63
2023/06/17 10:30:32;;;;;;;5.32;3.83;;;27.40;52.60;;;;;;10123169;28;20036;-63
2023/06/17 10:35:24;;;;;;;5.50;4.32;;;27.50;52.20;;;;;;10126332;28;20024;-63
2023/06/17 10:40:21;;;;;;;4.82;3.83;;;27.60;51.70;;;;;;10132605;28;20158;-61
2023/06/17 10:45:14;;;;;;;4.50;3.47;;;27.80;51.10;;;;;;10135054;28;20036;-62
2023/06/17 10:50:05;;;;;;;5.78;4.25;;;27.80;50.70;;;;;;10119218;28;20505;-62
2023/06/17 10:54:55;;;;;;;6.00;3.80;;;27.90;50.30;;;;;;10134428;28;20039;-62
2023/06/17 10:59:46;;;;;;;4.40;3.50;;;27.90;50.00;;;;;;10112159;28;20028;-62
2023/06/17 11:04:42;;;;;;;4.32;3.45;;;27.80;49.80;;;;;;10128646;28;20033;-62
2023/06/17 11:09:35;;;;;;;6.15;3.45;;;27.90;49.40;;;;;;10130311;28;20032;-62
2023/06/17 11:14:27;;;;;;;6.95;3.78;;;28.10;48.90;;;;;;10134441;28;20112;-62
2023/06/17 11:19:18;;;;;;;4.72;3.53;;;28.20;48.70;;;;;;10134612;28;20035;-62
2023/06/17 11:24:10;;;;;;;6.68;3.70;;;28.40;48.40;;;;;;10124932;28;20136;-63
2023/06/17 11:29:01;;;;;;;5.18;3.33;;;28.50;48.20;;;;;;10093426;28;20036;-62
2023/06/17 11:34:01;;;;;;;4.57;3.67;;;28.70;48.00;;;;;;10137507;28;20454;-62
2023/06/17 11:38:55;;;;;;;6.18;3.80;;;28.90;47.80;;;;;;10125527;28;20060;-62
2023/06/17 11:43:47;;;;;;;;;;;28.70;47.90;;;;;;10120032;28;20025;-62
2023/06/17 11:48:37;;;;;;;3.25;2.95;;;28.90;47.70;;;;;;10131508;28;19904;-62
2023/06/17 11:53:32;;;;;;;5.70;3.45;;;29.20;47.80;;;;;;10136322;28;20028;-63
2023/06/17 11:58:25;;;;;;;5.25;3.88;;;29.20;47.70;;;;;;10122044;28;20029;-62
2023/06/17 12:03:17;;;;;;;4.90;3.75;;;29.00;47.60;;;;;;10115137;28;20025;-62
2023/06/17 12:08:09;;;;;;;3.83;3.15;;;28.90;47.50;;;;;;10127925;28;20029;-62
2023/06/17 12:13:00;;;;;;;5.28;3.63;;;29.20;47.30;;;;;;10124582;28;20041;-63
2023/06/17 12:17:51;;;;;;;6.13;4.20;;;29.90;47.10;;;;;;10126123;28;20387;-64
2023/06/17 12:22:43;;;;;;;6.40;4.03;;;30.10;47.00;;;;;;10103564;28;20033;-63
2023/06/17 12:27:33;;;;;;;5.40;4.28;;;30.50;47.00;;;;;;10136586;28;20115;-62
2023/06/17 12:32:24;;;;;;;4.40;3.45;;;30.60;46.90;;;;;;10143456;28;20123;-63
2023/06/17 12:37:19;;;;;;;7.00;4.20;;;31.00;46.60;;;;;;10144156;28;20044;-61
2023/06/17 12:42:10;;;;;;;5.95;3.90;;;30.80;46.20;;;;;;10141213;28;20060;-66
2023/06/17 12:47:02;;;;;;;6.00;4.63;;;30.90;46.20;;;;;;10139660;28;20436;-64
2023/06/17 12:51:53;;;;;;;7.45;4.80;;;31.70;46.10;;;;;;10127114;28;20063;-63
2023/06/17 12:56:43;;;;;;;4.70;3.17;;;32.70;46.00;;;;;;10131840;28;20056;-63
2023/06/17 13:01:34;;;;;;;3.90;3.20;;;33.60;45.50;;;;;;10111030;28;20394;-62
2023/06/17 13:06:26;;;;;;;4.13;3.57;;;34.60;45.20;;;;;;10138357;28;20394;-63
2023/06/17 13:11:16;;;;;;;3.35;3.03;;;35.00;44.40;;;;;;10139414;28;20060;-63
2023/06/17 13:16:07;;;;;;;3.90;3.60;;;35.20;43.90;;;;;;10140615;28;20395;-62
2023/06/17 13:20:58;;;;;;;3.78;3.47;;;35.80;43.40;;;;;;10141715;28;20033;-64
2023/06/17 13:25:49;;;;;;;8.73;4.17;;;36.00;42.90;;;;;;10142082;28;20074;-63
2023/06/17 13:30:41;;;;;;;5.87;3.33;;;34.90;43.10;;;;;;10121754;28;20045;-64
2023/06/17 13:35:31;;;;;;;7.45;3.65;;;33.60;42.80;;;;;;10126158;28;20047;-62
2023/06/17 13:40:22;;;;;;;4.28;3.88;;;33.00;43.20;;;;;;10135676;28;20695;-64
2023/06/17 13:45:13;;;;;;;4.15;3.05;;;34.90;42.30;;;;;;10120759;28;20043;-63
2023/06/17 13:50:04;;;;;;;6.07;3.60;;;36.20;41.70;;;;;;10140145;28;20591;-62
2023/06/17 13:54:55;;;;;;;4.90;3.45;;;37.20;41.40;;;;;;10119783;28;20368;-64
2023/06/17 13:59:46;;;;;;;4.50;3.47;;;37.30;40.80;;;;;;10127248;28;20044;-62
2023/06/17 14:04:36;;;;;;;5.13;3.42;;;37.60;40.40;;;;;;10136821;28;20024;-64
2023/06/17 14:09:27;;;;;;;4.60;3.55;;;38.30;40.00;;;;;;10135338;28;20044;-63
2023/06/17 14:14:18;;;;;;;;;;;38.20;39.70;;;;;;10128493;28;20040;-62
2023/06/17 14:19:08;;;;;;;3.63;3.33;;;38.30;39.10;;;;;;10127899;28;20067;-62
2023/06/17 14:24:11;;;;;;;3.38;3.08;;;38.20;39.70;;;;;;10132149;28;20500;-63
2023/06/17 14:29:02;;;;;;;3.22;2.92;;;36.50;40.90;;;;;;10139133;28;20800;-64
2023/06/17 14:33:53;;;;;;;4.55;4.05;;;35.60;40.30;;;;;;10139554;28;20127;-63
2023/06/17 14:38:44;;;;;;;3.30;3.00;;;35.80;40.00;;;;;;10133358;28;20127;-63
2023/06/17 14:43:34;;;;;;;8.30;3.97;;;35.50;40.20;;;;;;10133134;28;20051;-62
2023/06/17 14:48:25;;;;;;;3.80;3.40;;;36.00;39.80;;;;;;10136726;28;20498;-62
2023/06/17 14:53:30;;;;;;;4.38;3.22;;;35.20;40.10;;;;;;10123303;28;20041;-63
2023/06/17 14:58:20;;;;;;;3.38;3.08;;;36.00;39.50;;;;;;10125476;28;20028;-61
2023/06/17 15:03:11;;;;;;;3.97;3.60;;;35.10;40.00;;;;;;10128090;28;20024;-63
2023/06/17 15:08:03;;;;;;;3.97;3.22;;;34.40;40.30;;;;;;10137298;28;20067;-62
2023/06/17 15:12:54;;;;;;;4.22;3.58;;;34.60;40.10;;;;;;10118282;28;20036;-62
2023/06/17 15:17:44;;;;;;;4.00;3.35;;;35.80;39.90;;;;;;10132422;28;20039;-62
2023/06/17 15:22:35;;;;;;;4.17;3.77;;;36.10;39.50;;;;;;10129802;28;20049;-62
2023/06/17 15:27:27;;;;;;;5.43;3.40;;;36.50;39.30;;;;;;10127406;28;20267;-63
2023/06/17 15:32:17;;;;;;;8.50;3.50;;;36.40;39.50;;;;;;10119771;28;20045;-63
2023/06/17 15:37:08;;;;;;;5.30;3.60;;;37.00;39.00;;;;;;10115814;28;20494;-63
2023/06/17 15:41:59;;;;;;;4.00;3.47;;;37.30;38.90;;;;;;10119284;28;20029;-63
2023/06/17 15:46:50;;;;;;;3.77;3.30;;;37.00;38.90;;;;;;10132187;28;20755;-61
2023/06/17 15:51:41;;;;;;;5.80;3.50;;;36.70;39.20;;;;;;10121513;28;20032;-63
2023/06/17 15:56:35;;;;;;;4.53;3.37;;;37.50;38.90;;;;;;10117441;28;20523;-63
2023/06/17 16:01:26;;;;;;;3.67;3.15;;;37.80;38.50;;;;;;10112207;28;20021;-62
2023/06/17 16:06:17;;;;;;;4.57;2.88;;;38.50;38.20;;;;;;10111252;28;20612;-63
2023/06/17 16:11:07;;;;;;;3.77;3.20;;;39.50;37.70;;;;;;10120756;28;20053;-61
2023/06/17 16:15:59;;;;;;;3.78;2.78;;;40.10;37.30;;;;;;10120952;28;20524;-62
2023/06/17 16:20:50;;;;;;;3.63;3.03;;;39.50;37.20;;;;;;10121646;28;20036;-62
2023/06/17 16:25:44;;;;;;;4.03;3.17;;;39.50;37.00;;;;;;10130055;28;20080;-63
2023/06/17 16:30:34;;;;;;;4.78;3.10;;;40.40;36.40;;;;;;10114594;28;20402;-63
2023/06/17 16:35:25;;;;;;;6.17;3.93;;;40.30;36.30;;;;;;10133057;28;20025;-61
2023/06/17 16:40:16;;;;;;;3.43;3.13;;;40.10;36.30;;;;;;10130715;28;20644;-62
2023/06/17 16:45:07;;;;;;;4.90;3.07;;;40.60;36.00;;;;;;10132437;28;20523;-62
2023/06/17 16:49:58;;;;;;;3.70;2.80;;;40.50;36.20;;;;;;10133403;28;20145;-62
2023/06/17 16:54:49;;;;;;;3.60;3.22;;;39.80;36.50;;;;;;10128616;28;20033;-62
2023/06/17 16:59:39;;;;;;;4.13;3.25;;;39.30;36.70;;;;;;10105607;28;20037;-62
2023/06/17 17:04:30;;;;;;;5.63;3.63;;;38.30;37.20;;;;;;10112955;28;20029;-64
2023/06/17 17:09:21;;;;;;;6.50;3.70;;;37.40;37.50;;;;;;10131305;28;20131;-64
2023/06/17 17:14:12;;;;;;;4.65;3.60;;;36.40;37.90;;;;;;10128552;28;20037;-63
2023/06/17 17:19:04;;;;;;;8.23;4.97;;;36.40;38.60;;;;;;10132923;28;20041;-64
2023/06/17 17:23:55;;;;;;;;;;;36.50;38.20;;;;;;10141882;28;20040;-62
2023/06/17 17:28:45;;;;;;;5.90;4.20;;;36.00;38.30;;;;;;10126616;28;19962;-63
2023/06/17 17:33:36;;;;;;;6.47;5.03;;;35.60;38.60;;;;;;10141590;28;20036;-62
2023/06/17 17:38:27;;;;;;;6.18;4.68;;;35.50;38.80;;;;;;10113859;28;20028;-61
2023/06/17 17:43:17;;;;;;;5.88;4.50;;;35.20;39.10;;;;;;10133892;28;20611;-62
2023/06/17 17:48:08;;;;;;;5.30;3.63;;;35.10;39.30;;;;;;10127657;28;20033;-62
2023/06/17 17:52:59;;;;;;;5.63;3.97;;;35.40;39.10;;;;;;10140514;28;20280;-63
2023/06/17 17:57:50;;;;;;;4.78;3.45;;;35.70;39.00;;;;;;10119580;28;20490;-62
2023/06/17 18:02:40;;;;;;;4.68;3.83;;;35.90;39.10;;;;;;10137605;28;20040;-61
2023/06/17 18:07:31;;;;;;;5.95;4.43;;;35.00;39.50;;;;;;10140767;28;20031;-63
2023/06/17 18:12:22;;;;;;;4.70;3.90;;;34.30;39.90;;;;;;10128944;28;20060;-62
2023/06/17 18:17:12;;;;;;;6.35;4.72;;;33.60;40.10;;;;;;10128366;28;20079;-62
2023/06/17 18:22:03;;;;;;;8.43;5.28;;;33.10;40.50;;;;;;10124535;28;20119;-62
2023/06/17 18:26:54;;;;;;;5.00;4.28;;;32.70;40.70;;;;;;10132511;28;20444;-62
2023/06/17 18:31:46;;;;;;;7.18;3.90;;;32.50;40.90;;;;;;10124778;28;20049;-61
2023/06/17 18:36:37;;;;;;;10.05;4.35;;;32.20;41.10;;;;;;10129965;28;20529;-62
2023/06/17 18:41:28;;;;;;;6.20;4.00;;;32.10;41.40;;;;;;10134764;28;20029;-62
2023/06/17 18:46:19;;;;;;;5.85;3.83;;;31.90;41.50;;;;;;10136001;28;20486;-65
2023/06/17 18:51:09;;;;;;;5.35;3.90;;;31.60;41.60;;;;;;10136059;28;20119;-62
2023/06/17 18:56:00;;;;;;;5.63;4.40;;;31.50;41.80;;;;;;10114066;28;20036;-63
2023/06/17 19:00:51;;;;;;;4.45;4.05;;;31.40;41.80;;;;;;10123746;28;20028;-63
2023/06/17 19:05:41;;;;;;;5.90;4.03;;;31.10;41.90;;;;;;10129706;28;20024;-62
2023/06/17 19:10:32;;;;;;;5.88;4.93;;;31.10;42.10;;;;;;10127949;28;20311;-63
2023/06/17 19:15:23;;;;;;;6.75;4.38;;;31.00;42.20;;;;;;10134260;28;20020;-63
2023/06/17 19:20:14;;;;;;;12.95;7.20;;;30.90;42.40;;;;;;10127522;28;20147;-63
2023/06/17 19:25:05;;;;;;;5.63;4.53;;;30.60;42.70;;;;;;10136902;28;20450;-63
2023/06/17 19:30:00;;;;;;;10.05;6.78;;;30.50;43.00;;;;;;10131713;28;20544;-63
2023/06/17 19:34:56;;;;;;;7.15;5.93;;;30.40;43.30;;;;;;10133173;28;20167;-64
2023/06/17 19:39:46;;;;;;;6.75;5.38;;;30.20;43.50;;;;;;10138029;28;20036;-62
2023/06/17 19:44:42;;;;;;;12.55;8.00;;;30.10;43.80;;;;;;10135202;28;20032;-65
2023/06/17 19:49:33;;;;;;;10.48;6.38;;;30.00;43.90;;;;;;10134999;28;20071;-63
2023/06/17 19:54:23;;;;;;;10.00;6.57;;;29.90;44.20;;;;;;10128050;28;20036;-63
2023/06/17 19:59:14;;;;;;;8.18;5.72;;;29.80;44.40;;;;;;10125228;28;20032;-64
2023/06/17 20:04:05;;;;;;;11.15;5.90;;;29.70;44.60;;;;;;10118815;28;20037;-61
2023/06/17 20:08:55;;;;;;;9.48;6.05;;;29.60;44.70;;;;;;10123952;28;20136;-63
2023/06/17 20:13:46;;;;;;;9.13;6.38;;;29.50;45.00;;;;;;10133463;28;20490;-61
2023/06/17 20:18:37;;;;;;;9.98;6.40;;;29.40;45.20;;;;;;10134542;28;20082;-65
2023/06/17 20:23:29;;;;;;;7.47;5.80;;;29.30;45.50;;;;;;10136343;28;20506;-63
2023/06/17 20:28:20;;;;;;;12.95;7.60;;;29.20;45.70;;;;;;10136622;28;20119;-62
2023/06/17 20:33:11;;;;;;;10.57;7.05;;;29.10;46.00;;;;;;10130900;28;20459;-62
2023/06/17 20:38:04;;;;;;;11.05;7.13;;;29.10;46.40;;;;;;10131177;28;20020;-63
2023/06/17 20:42:55;;;;;;;9.70;6.63;;;29.00;46.70;;;;;;10125990;28;20104;-62
2023/06/17 20:47:46;;;;;;;9.25;6.63;;;28.90;47.00;;;;;;10139789;28;20127;-61
2023/06/17 20:52:36;;;;;;;12.70;7.45;;;28.80;47.70;;;;;;10140905;28;20131;-62
2023/06/17 20:57:27;;;;;;;16.02;7.50;;;28.60;48.00;;;;;;10137296;28;20589;-62
2023/06/17 21:02:18;;;;;;;7.93;5.40;;;28.60;48.20;;;;;;10136456;28;20035;-62
2023/06/17 21:07:09;;;;;;;8.38;6.70;;;28.50;48.40;;;;;;10139972;28;20024;-62
2023/06/17 21:12:00;;;;;;;15.55;6.97;;;28.40;48.50;;;;;;10141288;28;20543;-63
2023/06/17 21:16:52;;;;;;;12.15;7.55;;;28.30;48.80;;;;;;10142452;28;20024;-62
2023/06/17 21:21:43;;;;;;;11.23;7.00;;;28.20;49.00;;;;;;10133899;28;20511;-62
2023/06/17 21:26:33;;;;;;;16.08;7.68;;;28.10;49.20;;;;;;10124017;28;20081;-63
2023/06/17 21:31:24;;;;;;;10.13;6.60;;;28.00;49.50;;;;;;10142326;28;20037;-61
2023/06/17 21:36:14;;;;;;;9.75;6.82;;;27.90;49.80;;;;;;10127070;28;20037;-61
2023/06/17 21:41:05;;;;;;;8.90;6.47;;;27.80;50.10;;;;;;10141745;28;20108;-61
2023/06/17 21:45:56;;;;;;;9.32;6.80;;;27.80;50.30;;;;;;10141851;28;20028;-61
2023/06/17 21:50:46;;;;;;;10.15;6.93;;;27.70;50.40;;;;;;10141947;28;20616;-63
2023/06/17 21:55:37;;;;;;;11.27;7.40;;;27.70;50.60;;;;;;10134535;28;20043;-62
2023/06/17 22:00:29;;;;;;;10.52;6.57;;;27.60;50.90;;;;;;10128108;28;20016;-62
2023/06/17 22:05:20;;;;;;;8.20;5.55;;;27.50;51.20;;;;;;10126871;28;20074;-61
2023/06/17 22:10:10;;;;;;;8.68;6.25;;;27.40;51.50;;;;;;10135713;28;20102;-62
2023/06/17 22:15:01;;;;;;;9.45;6.22;;;27.30;51.80;;;;;;10133521;28;20031;-62
2023/06/17 22:19:52;;;;;;;8.60;6.00;;;27.30;52.00;;;;;;10131597;28;20080;-64
2023/06/17 22:24:42;;;;;;;9.30;6.03;;;27.20;52.40;;;;;;10141212;28;20032;-62
2023/06/17 22:29:33;;;;;;;9.25;5.75;;;27.10;52.60;;;;;;10138002;28;20592;-62
2023/06/17 22:34:24;;;;;;;11.23;7.25;;;27.00;52.90;;;;;;10139163;28;20510;-62
2023/06/17 22:39:15;;;;;;;10.30;7.80;;;27.00;53.00;;;;;;10133594;28;20508;-63
2023/06/17 22:44:05;;;;;;;11.05;7.43;;;26.90;53.20;;;;;;10138075;28;20032;-64
2023/06/17 22:48:56;;;;;;;11.88;7.90;;;26.70;53.40;;;;;;10138272;28;20032;-63
2023/06/17 22:53:48;;;;;;;10.55;7.65;;;26.60;53.60;;;;;;10126320;28;20045;-62
2023/06/17 22:58:39;;;;;;;12.88;7.72;;;26.60;53.80;;;;;;10109434;28;20025;-62
2023/06/17 23:03:29;;;;;;;9.48;7.70;;;26.50;54.00;;;;;;10138117;28;20025;-62
2023/06/17 23:08:20;;;;;;;11.00;7.85;;;26.50;54.20;;;;;;10133805;28;20505;-63
2023/06/17 23:13:10;;;;;;;12.38;7.68;;;26.50;54.30;;;;;;10134931;28;20044;-64
2023/06/17 23:18:01;;;;;;;10.20;7.20;;;26.40;54.50;;;;;;10133771;28;20024;-61
2023/06/17 23:22:52;;;;;;;12.27;7.53;;;26.30;54.60;;;;;;10126522;28;20110;-63
2023/06/17 23:27:43;;;;;;;10.73;7.68;;;26.20;54.60;;;;;;10137126;28;20043;-62
2023/06/17 23:32:33;;;;;;;12.35;8.23;;;26.20;54.90;;;;;;10126341;28;20047;-62
2023/06/17 23:37:25;;;;;;;11.85;7.85;;;26.20;55.00;;;;;;10128717;28;20033;-64
2023/06/17 23:42:15;;;;;;;11.02;7.30;;;26.10;55.20;;;;;;10129533;28;20290;-63
2023/06/17 23:47:14;;;;;;;11.45;7.90;;;26.00;55.90;;;;;;10136471;28;20324;-63
2023/06/17 23:52:08;;;;;;;14.23;7.63;;;25.90;56.20;;;;;;10124309;28;20041;-63
2023/06/17 23:56:58;;;;;;;9.18;6.47;;;25.80;56.50;;;;;;10127721;28;20085;-62
